sensor_id;sensor_type;location;lat;lon;timestamp;pressure;altitude;pressure_sealevel;temperature;humidity
69058;BME280;56128;37.534;-122.308;2022-09-13T00:00:37;101178.84;;;20.78;64.54
69058;BME280;56128;37.534;-122.308;2022-09-13T00:03:04;101173.28;;;20.46;65.70
69058;BME280;56128;37.534;-122.308;2022-09-13T00:05:30;101181.63;;;20.44;65.66
69058;BME280;56128;37.534;-122.308;2022-09-13T00:07:57;101183.50;;;20.36;66.27
69058;BME280;56128;37.534;-122.308;2022-09-13T00:10:24;101175.53;;;20.34;66.51
69058;BME280;56128;37.534;-122.308;2022-09-13T00:12:51;101175.34;;;20.27;66.82
69058;BME280;56128;37.534;-122.308;2022-09-13T00:15:18;101180.44;;;20.22;67.00
69058;BME280;56128;37.534;-122.308;2022-09-13T00:17:44;101174.50;;;20.19;67.75
69058;BME280;56128;37.534;-122.308;2022-09-13T00:20:10;101179.94;;;20.10;67.44
69058;BME280;56128;37.534;-122.308;2022-09-13T00:22:36;101173.16;;;19.98;67.88
69058;BME280;56128;37.534;-122.308;2022-09-13T00:25:04;101177.88;;;19.96;68.14
69058;BME280;56128;37.534;-122.308;2022-09-13T00:27:35;101168.22;;;19.93;68.18
69058;BME280;56128;37.534;-122.308;2022-09-13T00:30:03;101183.50;;;19.94;68.24
69058;BME280;56128;37.534;-122.308;2022-09-13T00:32:30;101179.38;;;19.82;67.82
69058;BME280;56128;37.534;-122.308;2022-09-13T00:34:56;101180.06;;;19.68;68.38
69058;BME280;56128;37.534;-122.308;2022-09-13T00:37:22;101167.81;;;19.55;69.11
69058;BME280;56128;37.534;-122.308;2022-09-13T00:39:48;101174.72;;;19.50;68.65
69058;BME280;56128;37.534;-122.308;2022-09-13T00:42:15;101176.56;;;19.41;69.73
69058;BME280;56128;37.534;-122.308;2022-09-13T00:47:57;101174.69;;;19.33;70.45
69058;BME280;56128;37.534;-122.308;2022-09-13T00:50:40;101169.41;;;19.23;70.73
69058;BME280;56128;37.534;-122.308;2022-09-13T00:53:21;101176.00;;;19.21;71.37
69058;BME280;56128;37.534;-122.308;2022-09-13T00:56:03;101179.53;;;19.13;72.25
69058;BME280;56128;37.534;-122.308;2022-09-13T00:58:41;101174.44;;;19.10;71.77
69058;BME280;56128;37.534;-122.308;2022-09-13T01:01:12;101165.44;;;19.01;72.20
69058;BME280;56128;37.534;-122.308;2022-09-13T01:03:39;101169.81;;;19.02;72.37
69058;BME280;56128;37.534;-122.308;2022-09-13T01:06:16;101171.25;;;18.88;73.13
69058;BME280;56128;37.534;-122.308;2022-09-13T01:08:47;101167.66;;;18.79;73.50
69058;BME280;56128;37.534;-122.308;2022-09-13T01:14:00;101161.78;;;18.58;73.99
69058;BME280;56128;37.534;-122.308;2022-09-13T01:16:28;101169.34;;;18.46;74.74
69058;BME280;56128;37.534;-122.308;2022-09-13T01:18:54;101164.00;;;18.36;75.40
69058;BME280;56128;37.534;-122.308;2022-09-13T01:29:43;101173.91;;;18.01;76.60
69058;BME280;56128;37.534;-122.308;2022-09-13T01:47:51;101177.63;;;17.54;79.26
69058;BME280;56128;37.534;-122.308;2022-09-13T01:50:52;101179.66;;;17.52;78.99
69058;BME280;56128;37.534;-122.308;2022-09-13T01:53:32;101166.19;;;17.42;78.88
69058;BME280;56128;37.534;-122.308;2022-09-13T01:56:06;101173.75;;;17.39;79.46
69058;BME280;56128;37.534;-122.308;2022-09-13T01:58:44;101173.19;;;17.35;79.46
69058;BME280;56128;37.534;-122.308;2022-09-13T02:01:18;101175.50;;;17.30;79.72
69058;BME280;56128;37.534;-122.308;2022-09-13T02:03:58;101162.75;;;17.22;80.79
69058;BME280;56128;37.534;-122.308;2022-09-13T02:06:30;101163.03;;;17.19;80.54
69058;BME280;56128;37.534;-122.308;2022-09-13T02:09:07;101153.69;;;17.13;81.10
69058;BME280;56128;37.534;-122.308;2022-09-13T02:11:35;101160.53;;;17.08;81.37
69058;BME280;56128;37.534;-122.308;2022-09-13T02:14:08;101162.56;;;17.06;81.40
69058;BME280;56128;37.534;-122.308;2022-09-13T02:16:47;101155.03;;;16.99;81.60
69058;BME280;56128;37.534;-122.308;2022-09-13T02:19:21;101154.31;;;16.97;82.17
69058;BME280;56128;37.534;-122.308;2022-09-13T02:21:51;101150.91;;;16.95;81.89
69058;BME280;56128;37.534;-122.308;2022-09-13T02:24:30;101153.59;;;16.95;81.73
69058;BME280;56128;37.534;-122.308;2022-09-13T02:27:00;101153.78;;;16.94;81.96
69058;BME280;56128;37.534;-122.308;2022-09-13T02:29:29;101152.34;;;16.90;82.03
69058;BME280;56128;37.534;-122.308;2022-09-13T02:32:25;101156.19;;;16.87;82.06
69058;BME280;56128;37.534;-122.308;2022-09-13T02:35:01;101155.03;;;16.90;81.74
69058;BME280;56128;37.534;-122.308;2022-09-13T02:37:33;101155.19;;;16.88;80.94
69058;BME280;56128;37.534;-122.308;2022-09-13T02:40:04;101155.88;;;16.90;79.52
69058;BME280;56128;37.534;-122.308;2022-09-13T02:42:42;101150.63;;;16.88;80.35
69058;BME280;56128;37.534;-122.308;2022-09-13T02:45:10;101151.50;;;16.89;81.54
69058;BME280;56128;37.534;-122.308;2022-09-13T02:48:12;101158.34;;;16.83;81.90
69058;BME280;56128;37.534;-122.308;2022-09-13T02:51:01;101147.84;;;16.80;82.10
69058;BME280;56128;37.534;-122.308;2022-09-13T02:53:43;101150.66;;;16.79;82.22
69058;BME280;56128;37.534;-122.308;2022-09-13T02:59:08;101150.41;;;16.72;82.61
69058;BME280;56128;37.534;-122.308;2022-09-13T03:01:39;101145.44;;;16.67;82.92
69058;BME280;56128;37.534;-122.308;2022-09-13T03:04:06;101148.16;;;16.67;82.95
69058;BME280;56128;37.534;-122.308;2022-09-13T03:06:32;101153.16;;;16.62;83.19
69058;BME280;56128;37.534;-122.308;2022-09-13T03:09:02;101152.59;;;16.59;83.20
69058;BME280;56128;37.534;-122.308;2022-09-13T03:11:55;101162.13;;;16.63;82.54
69058;BME280;56128;37.534;-122.308;2022-09-13T03:21:00;101174.78;;;16.52;82.19
69058;BME280;56128;37.534;-122.308;2022-09-13T03:23:17;101180.75;;;16.56;82.41
69058;BME280;56128;37.534;-122.308;2022-09-13T03:42:53;101197.84;;;16.47;83.24
69058;BME280;56128;37.534;-122.308;2022-09-13T03:45:26;101198.13;;;16.44;83.45
69058;BME280;56128;37.534;-122.308;2022-09-13T03:47:54;101206.94;;;16.46;83.62
69058;BME280;56128;37.534;-122.308;2022-09-13T03:50:22;101198.28;;;16.42;83.58
69058;BME280;56128;37.534;-122.308;2022-09-13T03:53:00;101193.16;;;16.39;83.63
69058;BME280;56128;37.534;-122.308;2022-09-13T03:55:30;101204.81;;;16.39;83.67
69058;BME280;56128;37.534;-122.308;2022-09-13T03:57:57;101202.53;;;16.35;83.83
69058;BME280;56128;37.534;-122.308;2022-09-13T04:00:23;101207.09;;;16.34;83.76
69058;BME280;56128;37.534;-122.308;2022-09-13T04:02:49;101210.38;;;16.28;83.95
69058;BME280;56128;37.534;-122.308;2022-09-13T04:05:15;101205.13;;;16.27;84.30
69058;BME280;56128;37.534;-122.308;2022-09-13T04:07:42;101212.09;;;16.29;84.69
69058;BME280;56128;37.534;-122.308;2022-09-13T04:10:08;101213.22;;;16.27;84.60
69058;BME280;56128;37.534;-122.308;2022-09-13T04:12:35;101217.75;;;16.26;84.57
69058;BME280;56128;37.534;-122.308;2022-09-13T04:15:01;101220.19;;;16.19;84.90
69058;BME280;56128;37.534;-122.308;2022-09-13T04:17:27;101226.16;;;16.23;85.75
69058;BME280;56128;37.534;-122.308;2022-09-13T04:19:54;101221.31;;;16.17;85.83
69058;BME280;56128;37.534;-122.308;2022-09-13T04:22:20;101228.44;;;16.18;85.83
69058;BME280;56128;37.534;-122.308;2022-09-13T04:24:47;101230.84;;;16.11;86.17
69058;BME280;56128;37.534;-122.308;2022-09-13T04:27:13;101220.47;;;16.06;86.91
69058;BME280;56128;37.534;-122.308;2022-09-13T04:29:39;101216.34;;;16.02;86.28
69058;BME280;56128;37.534;-122.308;2022-09-13T04:32:05;101217.22;;;16.03;86.61
69058;BME280;56128;37.534;-122.308;2022-09-13T04:34:31;101236.94;;;16.03;87.14
69058;BME280;56128;37.534;-122.308;2022-09-13T04:36:57;101230.13;;;15.99;87.11
69058;BME280;56128;37.534;-122.308;2022-09-13T04:39:24;101213.09;;;15.89;87.76
69058;BME280;56128;37.534;-122.308;2022-09-13T04:41:50;101221.59;;;15.94;87.91
69058;BME280;56128;37.534;-122.308;2022-09-13T04:44:19;101221.59;;;15.94;88.06
69058;BME280;56128;37.534;-122.308;2022-09-13T04:46:47;101222.59;;;15.93;88.10
69058;BME280;56128;37.534;-122.308;2022-09-13T04:49:15;101220.47;;;15.87;88.57
69058;BME280;56128;37.534;-122.308;2022-09-13T04:51:41;101222.59;;;15.83;88.58
69058;BME280;56128;37.534;-122.308;2022-09-13T04:54:09;101224.66;;;15.80;88.97
69058;BME280;56128;37.534;-122.308;2022-09-13T04:56:35;101239.03;;;15.80;88.99
69058;BME280;56128;37.534;-122.308;2022-09-13T04:59:02;101232.22;;;15.76;88.94
69058;BME280;56128;37.534;-122.308;2022-09-13T05:01:28;101231.75;;;15.71;89.69
69058;BME280;56128;37.534;-122.308;2022-09-13T05:03:55;101229.34;;;15.68;90.00
69058;BME280;56128;37.534;-122.308;2022-09-13T05:06:21;101219.84;;;15.64;89.93
69058;BME280;56128;37.534;-122.308;2022-09-13T05:08:52;101218.41;;;15.59;90.36
69058;BME280;56128;37.534;-122.308;2022-09-13T05:11:21;101221.53;;;15.55;90.09
69058;BME280;56128;37.534;-122.308;2022-09-13T05:13:49;101211.56;;;15.46;90.34
69058;BME280;56128;37.534;-122.308;2022-09-13T05:16:24;101216.94;;;15.46;91.16
69058;BME280;56128;37.534;-122.308;2022-09-13T05:18:51;101219.19;;;15.40;91.15
69058;BME280;56128;37.534;-122.308;2022-09-13T05:21:19;101223.88;;;15.38;91.47
69058;BME280;56128;37.534;-122.308;2022-09-13T05:23:49;101222.59;;;15.33;91.38
69058;BME280;56128;37.534;-122.308;2022-09-13T05:26:15;101213.53;;;15.34;91.87
69058;BME280;56128;37.534;-122.308;2022-09-13T05:28:42;101211.63;;;15.24;91.71
69058;BME280;56128;37.534;-122.308;2022-09-13T05:31:17;101211.34;;;15.18;92.31
69058;BME280;56128;37.534;-122.308;2022-09-13T05:33:44;101214.03;;;15.18;92.75
69058;BME280;56128;37.534;-122.308;2022-09-13T05:36:11;101207.91;;;15.16;92.70
69058;BME280;56128;37.534;-122.308;2022-09-13T05:38:38;101206.75;;;15.08;92.38
69058;BME280;56128;37.534;-122.308;2022-09-13T05:41:04;101200.94;;;15.03;93.07
69058;BME280;56128;37.534;-122.308;2022-09-13T05:43:34;101205.44;;;15.03;93.22
69058;BME280;56128;37.534;-122.308;2022-09-13T05:48:28;101203.75;;;15.02;93.68
69058;BME280;56128;37.534;-122.308;2022-09-13T05:50:54;101203.44;;;14.95;93.63
69058;BME280;56128;37.534;-122.308;2022-09-13T05:53:21;101203.44;;;14.95;93.58
69058;BME280;56128;37.534;-122.308;2022-09-13T05:55:47;101204.81;;;14.89;94.01
69058;BME280;56128;37.534;-122.308;2022-09-13T05:58:13;101218.03;;;14.92;94.14
69058;BME280;56128;37.534;-122.308;2022-09-13T06:00:39;101214.91;;;14.87;94.02
69058;BME280;56128;37.534;-122.308;2022-09-13T06:03:07;101223.81;;;14.88;94.12
69058;BME280;56128;37.534;-122.308;2022-09-13T06:05:34;101218.72;;;14.85;94.85
69058;BME280;56128;37.534;-122.308;2022-09-13T06:08:00;101217.13;;;14.82;94.67
69058;BME280;56128;37.534;-122.308;2022-09-13T06:10:26;101227.78;;;14.84;94.85
69058;BME280;56128;37.534;-122.308;2022-09-13T06:12:52;101222.63;;;14.81;94.86
69058;BME280;56128;37.534;-122.308;2022-09-13T06:15:18;101215.56;;;14.80;95.46
69058;BME280;56128;37.534;-122.308;2022-09-13T06:17:45;101216.56;;;14.79;95.26
69058;BME280;56128;37.534;-122.308;2022-09-13T06:20:11;101210.28;;;14.78;95.59
69058;BME280;56128;37.534;-122.308;2022-09-13T06:22:37;101213.50;;;14.72;94.96
69058;BME280;56128;37.534;-122.308;2022-09-13T06:25:04;101220.75;;;14.71;95.23
69058;BME280;56128;37.534;-122.308;2022-09-13T06:27:30;101214.91;;;14.66;95.43
69058;BME280;56128;37.534;-122.308;2022-09-13T06:29:56;101213.44;;;14.62;96.15
69058;BME280;56128;37.534;-122.308;2022-09-13T06:32:22;101217.66;;;14.55;95.78
69058;BME280;56128;37.534;-122.308;2022-09-13T06:34:48;101219.22;;;14.57;96.43
69058;BME280;56128;37.534;-122.308;2022-09-13T06:37:14;101221.31;;;14.54;95.45
69058;BME280;56128;37.534;-122.308;2022-09-13T06:39:40;101222.59;;;14.50;95.83
69058;BME280;56128;37.534;-122.308;2022-09-13T06:42:07;101215.03;;;14.43;96.06
69058;BME280;56128;37.534;-122.308;2022-09-13T06:44:34;101223.81;;;14.45;96.15
69058;BME280;56128;37.534;-122.308;2022-09-13T06:47:00;101223.25;;;14.42;96.66
69058;BME280;56128;37.534;-122.308;2022-09-13T06:49:26;101224.59;;;14.36;96.42
69058;BME280;56128;37.534;-122.308;2022-09-13T06:51:53;101208.97;;;14.30;96.49
69058;BME280;56128;37.534;-122.308;2022-09-13T06:54:19;101230.97;;;14.35;96.50
69058;BME280;56128;37.534;-122.308;2022-09-13T06:56:46;101235.06;;;14.29;96.26
69058;BME280;56128;37.534;-122.308;2022-09-13T06:59:12;101223.94;;;14.23;96.28
69058;BME280;56128;37.534;-122.308;2022-09-13T07:01:40;101235.56;;;14.23;96.52
69058;BME280;56128;37.534;-122.308;2022-09-13T07:04:10;101229.59;;;14.20;97.01
69058;BME280;56128;37.534;-122.308;2022-09-13T07:06:39;101228.38;;;14.12;96.81
69058;BME280;56128;37.534;-122.308;2022-09-13T07:09:07;101232.78;;;14.13;96.93
69058;BME280;56128;37.534;-122.308;2022-09-13T07:11:37;101222.91;;;14.03;96.86
69058;BME280;56128;37.534;-122.308;2022-09-13T07:14:05;101234.28;;;14.06;97.18
69058;BME280;56128;37.534;-122.308;2022-09-13T07:16:36;101238.22;;;14.02;97.28
69058;BME280;56128;37.534;-122.308;2022-09-13T07:19:09;101235.91;;;13.98;96.90
69058;BME280;56128;37.534;-122.308;2022-09-13T07:21:37;101239.72;;;13.95;97.88
69058;BME280;56128;37.534;-122.308;2022-09-13T07:24:03;101236.19;;;13.94;98.24
69058;BME280;56128;37.534;-122.308;2022-09-13T07:26:30;101232.38;;;13.97;98.47
69058;BME280;56128;37.534;-122.308;2022-09-13T07:28:58;101233.09;;;13.99;98.86
69058;BME280;56128;37.534;-122.308;2022-09-13T07:31:36;101238.22;;;14.02;99.20
69058;BME280;56128;37.534;-122.308;2022-09-13T07:34:14;101239.06;;;14.03;98.96
69058;BME280;56128;37.534;-122.308;2022-09-13T07:36:41;101238.97;;;14.04;98.88
69058;BME280;56128;37.534;-122.308;2022-09-13T07:39:07;101246.75;;;14.07;99.02
69058;BME280;56128;37.534;-122.308;2022-09-13T07:41:34;101231.88;;;14.03;99.07
69058;BME280;56128;37.534;-122.308;2022-09-13T07:44:01;101234.88;;;14.10;99.13
69058;BME280;56128;37.534;-122.308;2022-09-13T07:46:31;101230.94;;;14.14;98.84
69058;BME280;56128;37.534;-122.308;2022-09-13T07:48:59;101232.78;;;14.13;98.74
69058;BME280;56128;37.534;-122.308;2022-09-13T07:51:33;101228.53;;;14.11;98.48
69058;BME280;56128;37.534;-122.308;2022-09-13T07:54:04;101234.50;;;14.15;99.27
69058;BME280;56128;37.534;-122.308;2022-09-13T07:56:36;101219.81;;;14.19;98.88
69058;BME280;56128;37.534;-122.308;2022-09-13T07:59:05;101217.72;;;14.22;98.29
69058;BME280;56128;37.534;-122.308;2022-09-13T08:01:40;101222.72;;;14.27;98.40
69058;BME280;56128;37.534;-122.308;2022-09-13T08:04:12;101224.22;;;14.41;97.90
69058;BME280;56128;37.534;-122.308;2022-09-13T08:06:39;101220.41;;;14.43;97.62
69058;BME280;56128;37.534;-122.308;2022-09-13T08:09:08;101214.06;;;14.44;97.18
69058;BME280;56128;37.534;-122.308;2022-09-13T08:11:49;101208.53;;;14.46;97.13
69058;BME280;56128;37.534;-122.308;2022-09-13T08:14:18;101213.63;;;14.49;97.32
69058;BME280;56128;37.534;-122.308;2022-09-13T08:16:45;101206.44;;;14.50;97.61
69058;BME280;56128;37.534;-122.308;2022-09-13T08:19:14;101201.56;;;14.43;97.18
69058;BME280;56128;37.534;-122.308;2022-09-13T08:21:41;101213.03;;;14.45;97.33
69058;BME280;56128;37.534;-122.308;2022-09-13T08:24:16;101216.31;;;14.49;98.18
69058;BME280;56128;37.534;-122.308;2022-09-13T08:26:43;101220.47;;;14.53;98.55
69058;BME280;56128;37.534;-122.308;2022-09-13T08:29:11;101214.50;;;14.50;98.23
69058;BME280;56128;37.534;-122.308;2022-09-13T08:31:37;101217.91;;;14.52;98.50
69058;BME280;56128;37.534;-122.308;2022-09-13T08:34:03;101211.81;;;14.50;98.67
69058;BME280;56128;37.534;-122.308;2022-09-13T08:36:30;101210.25;;;14.47;98.55
69058;BME280;56128;37.534;-122.308;2022-09-13T08:38:58;101200.13;;;14.39;98.22
69058;BME280;56128;37.534;-122.308;2022-09-13T08:44:44;101208.66;;;14.44;98.74
69058;BME280;56128;37.534;-122.308;2022-09-13T08:49:53;101219.81;;;14.40;98.73
69058;BME280;56128;37.534;-122.308;2022-09-13T08:55:53;101210.41;;;14.34;100.00
69058;BME280;56128;37.534;-122.308;2022-09-13T09:06:34;101200.97;;;14.19;100.00
69058;BME280;56128;37.534;-122.308;2022-09-13T09:09:15;101196.97;;;14.13;100.00
69058;BME280;56128;37.534;-122.308;2022-09-13T09:14:31;101193.69;;;14.09;100.00
69058;BME280;56128;37.534;-122.308;2022-09-13T09:17:01;101191.81;;;14.10;100.00
69058;BME280;56128;37.534;-122.308;2022-09-13T09:19:33;101181.59;;;14.04;100.00
69058;BME280;56128;37.534;-122.308;2022-09-13T09:22:03;101189.50;;;14.05;100.00
69058;BME280;56128;37.534;-122.308;2022-09-13T09:24:34;101189.66;;;14.04;100.00
69058;BME280;56128;37.534;-122.308;2022-09-13T09:27:13;101185.25;;;14.03;100.00
69058;BME280;56128;37.534;-122.308;2022-09-13T09:29:40;101174.84;;;14.09;100.00
69058;BME280;56128;37.534;-122.308;2022-09-13T09:37:41;101174.75;;;14.00;100.00
69058;BME280;56128;37.534;-122.308;2022-09-13T09:40:12;101172.31;;;13.96;99.93
69058;BME280;56128;37.534;-122.308;2022-09-13T09:42:46;101160.09;;;13.92;100.00
69058;BME280;56128;37.534;-122.308;2022-09-13T09:45:31;101170.50;;;13.97;100.00
69058;BME280;56128;37.534;-122.308;2022-09-13T09:48:07;101174.44;;;13.93;99.91
69058;BME280;56128;37.534;-122.308;2022-09-13T09:50:43;101166.59;;;13.90;100.00
69058;BME280;56128;37.534;-122.308;2022-09-13T09:53:13;101169.28;;;13.90;100.00
69058;BME280;56128;37.534;-122.308;2022-09-13T09:58:42;101169.94;;;13.82;99.75
69058;BME280;56128;37.534;-122.308;2022-09-13T10:01:31;101174.13;;;13.75;100.00
69058;BME280;56128;37.534;-122.308;2022-09-13T10:06:39;101174.16;;;13.63;100.00
69058;BME280;56128;37.534;-122.308;2022-09-13T10:14:41;101174.94;;;13.54;100.00
69058;BME280;56128;37.534;-122.308;2022-09-13T10:17:25;101167.50;;;13.46;100.00
69058;BME280;56128;37.534;-122.308;2022-09-13T10:20:00;101179.22;;;13.45;100.00
69058;BME280;56128;37.534;-122.308;2022-09-13T10:22:30;101175.06;;;13.41;100.00
69058;BME280;56128;37.534;-122.308;2022-09-13T10:25:29;101170.56;;;13.42;100.00
69058;BME280;56128;37.534;-122.308;2022-09-13T10:27:57;101173.63;;;13.37;100.00
69058;BME280;56128;37.534;-122.308;2022-09-13T10:33:39;101176.28;;;13.26;100.00
69058;BME280;56128;37.534;-122.308;2022-09-13T10:36:17;101172.16;;;13.22;100.00
69058;BME280;56128;37.534;-122.308;2022-09-13T10:38:55;101177.16;;;13.15;100.00
69058;BME280;56128;37.534;-122.308;2022-09-13T10:41:26;101174.59;;;13.13;100.00
69058;BME280;56128;37.534;-122.308;2022-09-13T10:44:01;101172.28;;;13.09;100.00
69058;BME280;56128;37.534;-122.308;2022-09-13T10:46:30;101173.50;;;13.05;100.00
69058;BME280;56128;37.534;-122.308;2022-09-13T10:48:57;101167.41;;;13.03;100.00
69058;BME280;56128;37.534;-122.308;2022-09-13T10:56:40;101160.94;;;12.94;100.00
69058;BME280;56128;37.534;-122.308;2022-09-13T10:59:24;101170.69;;;12.95;100.00
69058;BME280;56128;37.534;-122.308;2022-09-13T11:01:59;101171.91;;;12.91;100.00
69058;BME280;56128;37.534;-122.308;2022-09-13T11:10:43;101164.72;;;13.03;100.00
69058;BME280;56128;37.534;-122.308;2022-09-13T11:21:16;101167.03;;;12.96;100.00
69058;BME280;56128;37.534;-122.308;2022-09-13T11:24:08;101159.84;;;12.96;100.00
69058;BME280;56128;37.534;-122.308;2022-09-13T11:29:42;101158.00;;;13.08;100.00
69058;BME280;56128;37.534;-122.308;2022-09-13T11:47:13;101164.31;;;13.41;100.00
69058;BME280;56128;37.534;-122.308;2022-09-13T11:52:49;101155.03;;;13.45;100.00
69058;BME280;56128;37.534;-122.308;2022-09-13T11:55:45;101162.69;;;13.50;100.00
69058;BME280;56128;37.534;-122.308;2022-09-13T11:58:22;101162.56;;;13.63;100.00
69058;BME280;56128;37.534;-122.308;2022-09-13T12:00:53;101163.88;;;13.69;100.00
69058;BME280;56128;37.534;-122.308;2022-09-13T12:03:51;101162.75;;;13.71;100.00
69058;BME280;56128;37.534;-122.308;2022-09-13T12:06:26;101159.38;;;13.69;100.00
69058;BME280;56128;37.534;-122.308;2022-09-13T12:09:19;101161.03;;;13.70;100.00
69058;BME280;56128;37.534;-122.308;2022-09-13T12:12:11;101161.31;;;13.67;100.00
69058;BME280;56128;37.534;-122.308;2022-09-13T12:17:40;101156.13;;;13.87;100.00
69058;BME280;56128;37.534;-122.308;2022-09-13T12:20:28;101154.59;;;13.94;100.00
69058;BME280;56128;37.534;-122.308;2022-09-13T12:22:58;101164.00;;;14.00;100.00
69058;BME280;56128;37.534;-122.308;2022-09-13T12:25:36;101162.88;;;14.02;100.00
69058;BME280;56128;37.534;-122.308;2022-09-13T12:28:44;101166.78;;;14.09;100.00
69058;BME280;56128;37.534;-122.308;2022-09-13T12:31:21;101163.81;;;14.12;98.93
69058;BME280;56128;37.534;-122.308;2022-09-13T12:33:48;101168.81;;;14.17;99.65
69058;BME280;56128;37.534;-122.308;2022-09-13T12:52:27;101163.88;;;14.43;98.14
69058;BME280;56128;37.534;-122.308;2022-09-13T13:03:05;101165.75;;;14.53;96.91
69058;BME280;56128;37.534;-122.308;2022-09-13T13:05:47;101168.44;;;14.53;96.79
69058;BME280;56128;37.534;-122.308;2022-09-13T13:10:59;101171.88;;;14.55;96.62
69058;BME280;56128;37.534;-122.308;2022-09-13T13:13:35;101164.03;;;14.52;96.48
69058;BME280;56128;37.534;-122.308;2022-09-13T13:16:31;101168.31;;;14.54;96.41
69058;BME280;56128;37.534;-122.308;2022-09-13T13:19:31;101163.66;;;14.56;96.12
69058;BME280;56128;37.534;-122.308;2022-09-13T13:25:35;101172.59;;;14.57;95.80
69058;BME280;56128;37.534;-122.308;2022-09-13T13:33:54;101165.06;;;14.51;94.99
69058;BME280;56128;37.534;-122.308;2022-09-13T13:36:25;101174.25;;;14.48;95.21
69058;BME280;56128;37.534;-122.308;2022-09-13T13:39:01;101176.22;;;14.46;94.68
69058;BME280;56128;37.534;-122.308;2022-09-13T13:46:43;101182.13;;;14.40;94.95
69058;BME280;56128;37.534;-122.308;2022-09-13T13:55:48;101190.41;;;14.27;95.41
69058;BME280;56128;37.534;-122.308;2022-09-13T14:00:46;101197.72;;;14.04;96.45
69058;BME280;56128;37.534;-122.308;2022-09-13T14:03:17;101193.72;;;13.98;96.81
69058;BME280;56128;37.534;-122.308;2022-09-13T14:05:59;101198.66;;;13.93;97.32
69058;BME280;56128;37.534;-122.308;2022-09-13T14:17:25;101199.69;;;13.69;98.65
69058;BME280;56128;37.534;-122.308;2022-09-13T14:19:51;101205.31;;;13.66;98.65
69058;BME280;56128;37.534;-122.308;2022-09-13T14:22:27;101209.25;;;13.62;99.06
69058;BME280;56128;37.534;-122.308;2022-09-13T14:25:11;101217.69;;;13.57;99.65
69058;BME280;56128;37.534;-122.308;2022-09-13T14:27:39;101204.38;;;13.56;99.83
69058;BME280;56128;37.534;-122.308;2022-09-13T14:30:34;101213.19;;;13.58;99.66
69058;BME280;56128;37.534;-122.308;2022-09-13T14:33:01;101213.88;;;13.60;100.00
69058;BME280;56128;37.534;-122.308;2022-09-13T14:35:35;101207.81;;;13.58;100.00
69058;BME280;56128;37.534;-122.308;2022-09-13T14:38:24;101214.16;;;13.57;100.00
69058;BME280;56128;37.534;-122.308;2022-09-13T14:40:59;101221.25;;;13.58;100.00
69058;BME280;56128;37.534;-122.308;2022-09-13T14:43:28;101209.75;;;13.56;99.81
69058;BME280;56128;37.534;-122.308;2022-09-13T14:46:38;101215.38;;;13.64;99.91
69058;BME280;56128;37.534;-122.308;2022-09-13T14:48:48;101220.34;;;13.69;100.00
69058;BME280;56128;37.534;-122.308;2022-09-13T14:51:23;101223.41;;;13.75;99.46
69058;BME280;56128;37.534;-122.308;2022-09-13T14:53:59;101221.19;;;13.80;99.59
69058;BME280;56128;37.534;-122.308;2022-09-13T14:56:42;101224.06;;;13.89;99.41
69058;BME280;56128;37.534;-122.308;2022-09-13T14:59:23;101226.47;;;14.03;98.74
69058;BME280;56128;37.534;-122.308;2022-09-13T15:01:50;101229.84;;;14.17;98.07
69058;BME280;56128;37.534;-122.308;2022-09-13T15:04:18;101227.13;;;14.28;97.51
69058;BME280;56128;37.534;-122.308;2022-09-13T15:06:45;101228.03;;;14.38;97.12
69058;BME280;56128;37.534;-122.308;2022-09-13T15:19:28;101231.66;;;15.01;95.13
69058;BME280;56128;37.534;-122.308;2022-09-13T15:22:24;101238.72;;;15.23;93.43
69058;BME280;56128;37.534;-122.308;2022-09-13T15:24:55;101239.25;;;15.48;92.83
69058;BME280;56128;37.534;-122.308;2022-09-13T15:27:52;101240.41;;;15.65;90.38
69058;BME280;56128;37.534;-122.308;2022-09-13T15:30:27;101243.31;;;15.83;89.64
69058;BME280;56128;37.534;-122.308;2022-09-13T15:33:17;101235.81;;;15.96;86.51
69058;BME280;56128;37.534;-122.308;2022-09-13T15:35:45;101235.94;;;15.95;85.43
69058;BME280;56128;37.534;-122.308;2022-09-13T15:38:30;101238.06;;;15.91;85.17
69058;BME280;56128;37.534;-122.308;2022-09-13T15:43:28;101229.84;;;16.02;85.30
69058;BME280;56128;37.534;-122.308;2022-09-13T15:45:56;101240.94;;;16.09;85.43
69058;BME280;56128;37.534;-122.308;2022-09-13T15:48:33;101240.22;;;16.17;85.38
69058;BME280;56128;37.534;-122.308;2022-09-13T15:51:08;101248.88;;;16.40;84.31
69058;BME280;56128;37.534;-122.308;2022-09-13T15:53:36;101248.59;;;16.53;84.36
69058;BME280;56128;37.534;-122.308;2022-09-13T15:56:04;101241.16;;;16.65;83.20
69058;BME280;56128;37.534;-122.308;2022-09-13T15:58:31;101238.69;;;17.01;81.81
69058;BME280;56128;37.534;-122.308;2022-09-13T16:00:58;101235.72;;;17.32;78.65
69058;BME280;56128;37.534;-122.308;2022-09-13T16:03:24;101233.00;;;17.78;77.34
69058;BME280;56128;37.534;-122.308;2022-09-13T16:05:51;101237.25;;;18.08;75.84
69058;BME280;56128;37.534;-122.308;2022-09-13T16:08:18;101234.44;;;17.82;75.17
69058;BME280;56128;37.534;-122.308;2022-09-13T16:10:44;101244.47;;;18.88;72.17
69058;BME280;56128;37.534;-122.308;2022-09-13T16:13:11;101242.50;;;19.76;68.02
69058;BME280;56128;37.534;-122.308;2022-09-13T16:15:37;101240.22;;;20.47;64.48